Time;durP1;ratioP1;P1;durP2;ratioP2;P2;SDS_P1;SDS_P2;PMS_P1;PMS_P2;Temp;Humidity;BMP_temperature;BMP_pressure;BME280_temperature;BME280_humidity;BME280_pressure;Samples;Min_cycle;Max_cycle;Signal;HPM_P1;HPM_P2
2023/04/15 00:00:42;;;;;;;5.10;2.50;;;14.80;78.50;;;;;;5035410;28;20440;-91
2023/04/15 00:03:08;;;;;;;6.73;3.63;;;14.80;78.50;;;;;;5002472;28;20459;-93
2023/04/15 00:05:34;;;;;;;4.43;3.63;;;14.70;78.40;;;;;;5019171;28;20181;-93
2023/04/15 00:08:00;;;;;;;9.87;3.30;;;14.70;78.40;;;;;;5002522;28;20728;-93
2023/04/15 00:10:27;;;;;;;5.60;4.00;;;14.70;78.50;;;;;;5035144;28;20439;-92
2023/04/15 00:12:53;;;;;;;5.57;3.40;;;14.70;78.50;;;;;;5021777;28;20484;-93
2023/04/15 00:15:19;;;;;;;4.33;3.20;;;14.70;78.50;;;;;;5021997;28;20519;-93
2023/04/15 00:17:45;;;;;;;3.83;3.07;;;14.70;78.50;;;;;;5022255;28;20437;-93
2023/04/15 00:20:11;;;;;;;4.57;3.00;;;14.60;78.50;;;;;;5006007;28;20487;-93
2023/04/15 00:22:37;;;;;;;3.70;3.20;;;14.60;78.60;;;;;;5022193;28;20492;-93
2023/04/15 00:25:04;;;;;;;4.70;3.00;;;14.60;78.60;;;;;;5022175;28;20425;-93
2023/04/15 00:27:29;;;;;;;3.87;3.10;;;14.60;78.70;;;;;;5038425;28;20493;-93
2023/04/15 00:29:56;;;;;;;5.40;2.93;;;14.60;78.80;;;;;;5038444;28;20453;-93
2023/04/15 00:32:22;;;;;;;3.40;2.90;;;14.60;78.80;;;;;;5038427;28;20431;-93
2023/04/15 00:34:48;;;;;;;5.60;3.03;;;14.50;78.80;;;;;;5022020;28;20460;-93
2023/04/15 00:37:14;;;;;;;6.47;3.07;;;14.50;78.90;;;;;;5021766;28;20434;-92
2023/04/15 00:39:40;;;;;;;6.17;3.20;;;14.50;79.00;;;;;;5021949;28;20732;-92
2023/04/15 00:42:06;;;;;;;6.70;3.73;;;14.50;79.00;;;;;;5005642;28;20433;-93
2023/04/15 00:44:33;;;;;;;5.17;2.87;;;14.50;79.10;;;;;;5022014;28;20419;-92
2023/04/15 00:47:00;;;;;;;4.27;2.73;;;14.50;79.10;;;;;;5038321;28;20437;-93
2023/04/15 00:49:27;;;;;;;4.17;2.80;;;14.50;79.10;;;;;;5005819;28;20834;-92
2023/04/15 00:51:53;;;;;;;6.40;4.03;;;14.40;79.00;;;;;;5038015;28;20418;-92
2023/04/15 00:54:20;;;;;;;5.40;3.43;;;14.40;79.00;;;;;;5021881;28;20536;-92
2023/04/15 00:56:46;;;;;;;4.47;3.70;;;14.40;79.10;;;;;;5038078;28;20465;-91
2023/04/15 00:59:13;;;;;;;5.60;3.43;;;14.40;79.10;;;;;;5038079;28;20468;-91
2023/04/15 01:01:40;;;;;;;4.00;3.60;;;14.30;79.80;;;;;;5021488;28;20433;-91
2023/04/15 01:04:08;;;;;;;6.67;3.50;;;14.30;79.00;;;;;;5021697;28;20462;-90
2023/04/15 01:06:34;;;;;;;4.87;3.43;;;14.30;79.00;;;;;;5037740;28;20428;-91
2023/04/15 01:09:03;;;;;;;4.13;3.30;;;14.30;79.10;;;;;;5037915;28;20462;-92
2023/04/15 01:11:31;;;;;;;3.87;3.10;;;14.30;79.10;;;;;;5037742;28;20934;-91
2023/04/15 01:13:58;;;;;;;4.97;3.60;;;14.30;79.20;;;;;;5037628;28;20430;-91
2023/04/15 01:16:24;;;;;;;7.13;3.83;;;14.20;79.10;;;;;;5023964;28;20758;-92
2023/04/15 01:18:51;;;;;;;6.47;3.93;;;14.20;79.10;;;;;;5042336;28;20430;-91
2023/04/15 01:21:18;;;;;;;7.57;4.03;;;14.20;79.20;;;;;;5025281;28;21018;-92
2023/04/15 01:23:47;;;;;;;5.63;3.40;;;14.20;79.20;;;;;;5041619;28;20442;-92
2023/04/15 01:26:13;;;;;;;7.10;4.07;;;14.20;79.20;;;;;;5025520;28;20477;-92
2023/04/15 01:28:39;;;;;;;5.40;3.33;;;14.20;79.20;;;;;;5025650;28;20425;-93
2023/04/15 01:31:13;;;;;;;7.63;4.10;;;14.10;79.10;;;;;;5041832;28;20450;-93
2023/04/15 01:33:42;;;;;;;4.47;3.57;;;14.10;79.20;;;;;;5025309;28;20851;-92
2023/04/15 01:36:27;;;;;;;6.33;3.60;;;14.10;79.20;;;;;;5054501;28;20442;-93
2023/04/15 01:38:54;;;;;;;6.07;3.40;;;14.10;79.20;;;;;;5022421;28;20493;-94
2023/04/15 01:41:26;;;;;;;3.77;3.10;;;14.10;79.30;;;;;;5038205;28;20420;-93
2023/04/15 01:43:53;;;;;;;7.50;3.70;;;14.10;79.30;;;;;;5037982;28;20396;-92
2023/04/15 01:46:21;;;;;;;4.97;3.27;;;14.10;80.10;;;;;;5021447;28;20938;-93
2023/04/15 01:48:48;;;;;;;5.17;3.83;;;14.00;79.20;;;;;;5021741;28;20425;-93
2023/04/15 01:51:16;;;;;;;4.03;3.40;;;14.00;79.20;;;;;;5021546;28;20872;-93
2023/04/15 01:53:43;;;;;;;4.40;3.30;;;14.00;79.30;;;;;;5004982;28;20445;-93
2023/04/15 01:56:10;;;;;;;5.93;3.97;;;14.00;79.40;;;;;;5021283;28;20470;-93
2023/04/15 01:58:39;;;;;;;5.57;4.07;;;14.00;79.40;;;;;;5021601;28;20422;-91
2023/04/15 02:01:06;;;;;;;6.63;4.27;;;13.90;79.40;;;;;;5021223;28;20437;-93
2023/04/15 02:03:34;;;;;;;6.30;3.83;;;13.90;79.40;;;;;;5021117;28;20428;-92
2023/04/15 02:06:01;;;;;;;4.20;3.43;;;13.90;79.40;;;;;;5020765;28;20421;-92
2023/04/15 02:08:29;;;;;;;5.57;3.80;;;13.90;79.50;;;;;;5037126;28;20445;-89
2023/04/15 02:10:56;;;;;;;5.73;3.73;;;13.90;79.50;;;;;;5020935;28;20727;-90
2023/04/15 02:13:25;;;;;;;7.10;4.30;;;13.90;79.60;;;;;;5021056;28;20432;-92
2023/04/15 02:15:54;;;;;;;4.20;3.10;;;13.80;79.50;;;;;;5021017;28;20485;-92
2023/04/15 02:18:21;;;;;;;4.50;3.50;;;13.80;79.60;;;;;;5021086;28;20429;-92
2023/04/15 02:20:51;;;;;;;5.40;3.80;;;13.80;79.60;;;;;;5020782;28;20414;-92
2023/04/15 02:23:18;;;;;;;6.70;3.90;;;13.80;79.70;;;;;;5020493;28;20450;-92
2023/04/15 02:25:46;;;;;;;5.30;3.47;;;13.80;79.80;;;;;;5020533;28;20413;-92
2023/04/15 02:28:13;;;;;;;5.77;3.87;;;13.80;79.80;;;;;;5018584;28;20424;-92
2023/04/15 02:30:40;;;;;;;4.83;3.60;;;13.70;79.80;;;;;;5020175;28;20439;-92
2023/04/15 02:33:08;;;;;;;5.47;3.50;;;13.70;79.80;;;;;;5020608;28;20423;-92
2023/04/15 02:35:40;;;;;;;6.93;4.13;;;13.70;79.80;;;;;;5020444;28;20475;-92
2023/04/15 02:38:08;;;;;;;6.80;3.80;;;13.70;79.90;;;;;;5020136;28;20441;-92
2023/04/15 02:40:37;;;;;;;4.67;3.90;;;13.70;79.90;;;;;;5036959;28;20426;-92
2023/04/15 02:43:06;;;;;;;6.53;3.63;;;13.60;79.90;;;;;;5020287;28;20418;-93
2023/04/15 02:45:34;;;;;;;6.53;3.27;;;13.60;80.70;;;;;;5036793;28;20445;-92
2023/04/15 02:48:05;;;;;;;7.60;4.00;;;13.60;79.90;;;;;;5036524;28;20428;-92
2023/04/15 02:50:33;;;;;;;7.63;4.63;;;13.60;80.00;;;;;;5036585;28;20447;-91
2023/04/15 02:53:01;;;;;;;5.03;3.90;;;13.60;80.00;;;;;;5028176;28;20786;-93
2023/04/15 02:55:28;;;;;;;6.57;3.70;;;13.60;80.10;;;;;;5003783;28;20453;-91
2023/04/15 02:57:58;;;;;;;7.60;4.13;;;13.60;80.20;;;;;;5019855;28;20448;-92
2023/04/15 03:00:26;;;;;;;6.10;4.37;;;13.50;80.10;;;;;;5036449;28;20436;-91
2023/04/15 03:02:58;;;;;;;6.57;3.97;;;13.60;80.30;;;;;;5036284;28;20752;-91
2023/04/15 03:05:25;;;;;;;6.20;4.13;;;13.50;80.30;;;;;;5036184;28;20738;-92
2023/04/15 03:07:53;;;;;;;5.53;3.83;;;13.50;83.70;;;;;;5005805;28;20450;-91
2023/04/15 03:10:21;;;;;;;4.87;3.90;;;13.50;80.20;;;;;;5036166;28;20763;-91
2023/04/15 03:12:48;;;;;;;5.20;3.40;;;13.50;80.30;;;;;;5036154;28;20770;-93
2023/04/15 03:15:18;;;;;;;4.47;4.07;;;13.40;80.20;;;;;;5035837;28;20473;-91
2023/04/15 03:17:49;;;;;;;5.23;3.67;;;13.40;80.20;;;;;;5035436;28;20402;-91
2023/04/15 03:20:17;;;;;;;6.73;4.43;;;13.40;80.30;;;;;;5036322;28;20449;-92
2023/04/15 03:22:44;;;;;;;5.57;4.73;;;13.40;80.30;;;;;;5035829;28;20435;-91
2023/04/15 03:25:11;;;;;;;8.00;4.23;;;13.40;80.40;;;;;;5035930;28;20390;-92
2023/04/15 03:27:40;;;;;;;5.60;4.23;;;13.40;80.40;;;;;;5036356;28;20747;-92
2023/04/15 03:30:08;;;;;;;6.53;4.03;;;13.40;80.50;;;;;;5019490;28;20445;-91
2023/04/15 03:32:38;;;;;;;5.60;4.47;;;13.30;80.40;;;;;;5035798;28;21011;-91
2023/04/15 03:35:07;;;;;;;7.53;4.17;;;13.30;80.50;;;;;;5019143;28;20476;-91
2023/04/15 03:37:34;;;;;;;5.80;4.37;;;13.30;80.50;;;;;;5002410;28;20422;-91
2023/04/15 03:40:01;;;;;;;4.70;3.80;;;13.30;80.60;;;;;;5035873;28;20718;-91
2023/04/15 03:42:29;;;;;;;5.60;4.50;;;13.30;80.70;;;;;;5019266;28;20425;-92
2023/04/15 03:44:56;;;;;;;7.80;4.67;;;13.30;80.70;;;;;;5002756;28;20414;-91
2023/04/15 03:47:24;;;;;;;6.03;4.40;;;13.20;80.70;;;;;;5035193;28;20426;-91
2023/04/15 03:49:51;;;;;;;6.30;4.63;;;13.20;80.80;;;;;;5035521;28;20419;-91
2023/04/15 03:52:18;;;;;;;6.63;4.33;;;13.20;80.80;;;;;;5035506;28;20417;-91
2023/04/15 03:54:45;;;;;;;6.23;4.37;;;13.20;80.90;;;;;;5035729;28;20723;-90
2023/04/15 03:57:12;;;;;;;6.60;4.20;;;13.20;81.00;;;;;;5051735;28;20470;-90
2023/04/15 03:59:39;;;;;;;4.50;3.90;;;13.20;81.00;;;;;;5035253;28;20424;-91
2023/04/15 04:02:07;;;;;;;6.67;4.10;;;13.20;81.10;;;;;;5035095;28;20415;-91
2023/04/15 04:04:34;;;;;;;6.93;4.90;;;13.10;81.10;;;;;;5035179;28;20431;-91
2023/04/15 04:07:01;;;;;;;7.90;5.10;;;13.10;81.20;;;;;;5035460;28;20750;-91
2023/04/15 04:09:31;;;;;;;4.93;4.27;;;13.10;81.30;;;;;;5035105;28;20434;-91
2023/04/15 04:11:58;;;;;;;6.20;4.70;;;13.10;81.30;;;;;;5018656;28;20425;-90
2023/04/15 04:14:28;;;;;;;5.70;4.20;;;13.10;81.40;;;;;;5034993;28;20935;-91
2023/04/15 04:16:56;;;;;;;7.40;5.00;;;13.10;81.50;;;;;;5034718;28;20463;-91
2023/04/15 04:19:25;;;;;;;5.17;4.70;;;13.10;81.50;;;;;;5035450;28;20437;-91
2023/04/15 04:21:52;;;;;;;8.30;4.77;;;13.10;81.60;;;;;;5035430;28;20436;-91
2023/04/15 04:24:20;;;;;;;8.13;4.93;;;13.10;81.70;;;;;;5051595;28;20423;-92
2023/04/15 04:26:47;;;;;;;8.30;5.30;;;13.00;81.70;;;;;;5035031;28;20424;-91
2023/04/15 04:29:14;;;;;;;9.27;5.47;;;13.00;81.80;;;;;;5034858;28;20452;-92
2023/04/15 04:31:42;;;;;;;5.93;5.33;;;13.00;81.90;;;;;;5035017;28;20416;-92
2023/04/15 04:34:09;;;;;;;6.57;5.13;;;13.00;82.00;;;;;;5034908;28;20760;-92
2023/04/15 04:36:36;;;;;;;6.77;5.93;;;13.00;82.10;;;;;;5051375;28;20482;-91
2023/04/15 04:39:04;;;;;;;6.93;5.10;;;13.00;82.20;;;;;;5038209;28;20428;-92
2023/04/15 04:41:31;;;;;;;9.30;6.17;;;13.00;82.30;;;;;;5038253;28;20753;-90
2023/04/15 04:43:59;;;;;;;7.40;5.30;;;12.90;82.30;;;;;;5054839;28;20410;-92
2023/04/15 04:46:26;;;;;;;9.20;5.03;;;12.90;82.30;;;;;;5038244;28;20751;-91
2023/04/15 04:48:53;;;;;;;7.00;5.67;;;12.90;82.30;;;;;;5036995;28;20428;-92
2023/04/15 04:51:21;;;;;;;5.80;5.20;;;12.90;83.30;;;;;;5022689;28;20424;-92
2023/04/15 04:53:48;;;;;;;6.17;5.57;;;12.90;82.60;;;;;;5022360;28;20444;-92
2023/04/15 04:56:15;;;;;;;7.87;6.73;;;12.90;82.70;;;;;;5005905;28;20480;-92
2023/04/15 04:58:42;;;;;;;8.40;5.67;;;12.90;82.80;;;;;;5039439;28;20401;-92
2023/04/15 05:01:09;;;;;;;10.00;5.73;;;12.90;82.80;;;;;;5005858;28;20437;-92
2023/04/15 05:03:37;;;;;;;6.20;5.20;;;12.90;82.90;;;;;;5038451;28;20449;-92
2023/04/15 05:06:10;;;;;;;6.30;5.70;;;12.80;82.80;;;;;;5006599;28;20403;-91
2023/04/15 05:08:37;;;;;;;6.07;5.50;;;12.80;82.90;;;;;;5022274;28;20424;-92
2023/04/15 05:11:05;;;;;;;7.90;5.50;;;12.80;83.00;;;;;;5021906;28;20451;-93
2023/04/15 05:13:32;;;;;;;11.30;6.50;;;12.80;83.00;;;;;;5005639;28;20442;-93
2023/04/15 05:15:59;;;;;;;8.60;6.53;;;12.80;83.10;;;;;;5021759;28;20458;-92
2023/04/15 05:18:30;;;;;;;8.47;6.33;;;12.80;83.20;;;;;;5038102;28;20434;-92
2023/04/15 05:20:57;;;;;;;9.70;6.73;;;12.80;83.30;;;;;;5021961;28;20419;-92
2023/04/15 05:23:25;;;;;;;9.47;6.00;;;12.80;83.40;;;;;;5005431;28;20420;-93
2023/04/15 05:25:52;;;;;;;7.60;6.13;;;12.70;83.40;;;;;;5021509;28;20449;-92
2023/04/15 05:28:20;;;;;;;9.00;6.53;;;12.70;83.50;;;;;;5021903;28;20416;-93
2023/04/15 05:30:47;;;;;;;7.27;6.20;;;12.70;83.50;;;;;;5038341;28;20416;-93
2023/04/15 05:33:14;;;;;;;10.20;6.67;;;12.80;83.80;;;;;;5021543;28;20456;-92
2023/04/15 05:35:49;;;;;;;9.27;7.00;;;12.70;83.80;;;;;;5038377;28;20401;-91
2023/04/15 05:38:16;;;;;;;8.27;6.37;;;12.70;83.90;;;;;;5021813;28;20412;-90
2023/04/15 05:40:43;;;;;;;8.50;6.80;;;12.70;84.00;;;;;;5037978;28;20413;-91
2023/04/15 05:43:10;;;;;;;6.87;6.10;;;12.70;84.20;;;;;;5038391;28;20420;-91
2023/04/15 05:45:37;;;;;;;9.07;6.83;;;12.60;84.20;;;;;;5021417;28;20448;-92
2023/04/15 05:48:05;;;;;;;8.60;7.20;;;12.70;84.40;;;;;;5037772;28;20436;-91
2023/04/15 05:50:32;;;;;;;7.33;6.60;;;12.60;84.30;;;;;;5037865;28;20431;-91
2023/04/15 05:52:59;;;;;;;8.53;6.23;;;12.60;84.50;;;;;;5021253;28;20451;-91
2023/04/15 05:55:26;;;;;;;8.00;6.33;;;12.60;84.60;;;;;;5021828;28;20431;-92
2023/04/15 05:57:54;;;;;;;8.60;6.97;;;12.60;84.90;;;;;;5020984;28;20464;-94
2023/04/15 06:00:46;;;;;;;7.33;6.27;;;12.60;85.00;;;;;;5020984;28;20436;-91
2023/04/15 06:07:33;;;;;;;8.30;6.07;;;12.60;85.30;;;;;;5038320;28;20410;-93
2023/04/15 06:10:01;;;;;;;9.07;5.97;;;12.50;85.40;;;;;;5037749;28;20419;-93
2023/04/15 06:12:28;;;;;;;7.10;6.40;;;12.50;85.70;;;;;;5037496;28;20416;-91
2023/04/15 06:14:55;;;;;;;7.57;6.60;;;12.50;85.90;;;;;;5040775;28;20422;-91
2023/04/15 06:17:22;;;;;;;6.93;6.23;;;12.50;86.00;;;;;;5029321;28;20486;-90
2023/04/15 06:19:54;;;;;;;7.17;6.40;;;12.50;86.10;;;;;;5036815;28;20418;-90
2023/04/15 06:22:23;;;;;;;6.80;6.00;;;12.50;86.30;;;;;;5020737;28;20406;-91
2023/04/15 06:24:53;;;;;;;10.50;5.70;;;12.50;86.30;;;;;;5021099;28;20447;-92
2023/04/15 06:27:21;;;;;;;7.30;6.43;;;12.50;86.50;;;;;;5020285;28;20414;-92
2023/04/15 06:31:18;;;;;;;6.43;5.83;;;12.50;86.60;;;;;;4997084;28;20443;-90
2023/04/15 06:33:47;;;;;;;9.20;6.40;;;12.50;86.80;;;;;;4996638;28;20416;-91
2023/04/15 06:36:14;;;;;;;8.33;5.90;;;12.50;86.90;;;;;;4996670;28;20466;-93
2023/04/15 06:38:41;;;;;;;6.60;5.90;;;12.50;87.10;;;;;;4980615;28;20414;-92
2023/04/15 06:41:08;;;;;;;6.87;6.17;;;12.50;87.30;;;;;;4980103;28;20430;-91
2023/04/15 06:43:35;;;;;;;8.80;7.20;;;12.50;87.40;;;;;;4996570;28;20424;-91
2023/04/15 06:47:13;;;;;;;7.13;6.43;;;12.50;87.40;;;;;;4996436;28;20431;-91
2023/04/15 06:49:41;;;;;;;6.20;5.60;;;12.50;87.60;;;;;;4964427;28;20416;-93
2023/04/15 06:52:30;;;;;;;6.93;5.70;;;12.50;87.60;;;;;;4959108;28;20453;-93
2023/04/15 06:54:58;;;;;;;6.50;5.73;;;12.50;87.70;;;;;;4963984;28;20445;-92
2023/04/15 06:57:25;;;;;;;7.17;6.40;;;12.50;87.80;;;;;;4996327;28;20472;-92
2023/04/15 06:59:53;;;;;;;6.13;5.57;;;12.50;87.70;;;;;;4998145;28;20417;-92
2023/04/15 07:02:23;;;;;;;6.63;5.50;;;12.50;87.80;;;;;;5036462;28;20442;-94
2023/04/15 07:04:53;;;;;;;9.50;5.70;;;12.50;87.90;;;;;;5019896;28;20417;-94
2023/04/15 07:07:49;;;;;;;6.07;5.47;;;12.60;88.00;;;;;;5003168;28;20408;-95
2023/04/15 07:10:17;;;;;;;7.20;6.00;;;12.60;88.00;;;;;;5000293;28;20454;-94
2023/04/15 07:12:47;;;;;;;7.03;6.30;;;12.60;88.00;;;;;;4999615;28;20438;-95
2023/04/15 07:18:51;;;;;;;7.60;5.20;;;12.60;88.50;;;;;;5023672;28;20919;-95
2023/04/15 07:21:19;;;;;;;6.57;5.70;;;12.60;88.80;;;;;;5019724;28;20425;-95
2023/04/15 07:23:46;;;;;;;8.40;6.50;;;12.60;88.80;;;;;;5019672;28;20419;-94
2023/04/15 07:26:13;;;;;;;5.90;5.30;;;12.60;89.00;;;;;;5019708;28;20413;-92
2023/04/15 07:28:40;;;;;;;7.83;6.53;;;12.70;89.30;;;;;;5019523;28;20438;-93
2023/04/15 07:31:08;;;;;;;7.57;6.57;;;12.70;89.60;;;;;;5036856;28;20423;-92
2023/04/15 07:33:35;;;;;;;8.20;6.67;;;12.70;89.60;;;;;;5019320;28;20428;-93
2023/04/15 07:36:03;;;;;;;8.63;5.77;;;12.70;89.50;;;;;;5037056;28;20446;-93
2023/04/15 07:38:30;;;;;;;6.83;5.67;;;12.70;89.70;;;;;;5055315;28;20469;-93
2023/04/15 07:41:01;;;;;;;6.97;5.67;;;12.70;89.70;;;;;;5050366;28;20425;-94
2023/04/15 07:43:31;;;;;;;6.80;5.63;;;12.70;89.70;;;;;;5035513;28;20425;-92
2023/04/15 07:45:59;;;;;;;7.73;5.60;;;12.70;89.60;;;;;;5018949;28;20944;-92
2023/04/15 07:48:26;;;;;;;6.07;5.37;;;12.70;89.60;;;;;;5019330;28;20432;-94
2023/04/15 07:50:53;;;;;;;5.87;4.77;;;12.80;89.60;;;;;;5019237;28;20426;-94
2023/04/15 07:57:23;;;;;;;6.13;4.90;;;12.80;89.60;;;;;;5036695;28;20469;-94
2023/04/15 07:59:50;;;;;;;5.40;3.80;;;12.80;89.50;;;;;;5037114;28;20817;-95
2023/04/15 08:02:20;;;;;;;4.27;3.80;;;12.80;89.40;;;;;;5036695;28;20441;-94
2023/04/15 08:04:47;;;;;;;4.93;4.43;;;12.80;89.40;;;;;;5037174;28;20439;-94
2023/04/15 08:07:15;;;;;;;4.70;4.27;;;12.80;89.30;;;;;;5036809;28;20424;-94
2023/04/15 08:09:42;;;;;;;4.70;3.87;;;12.80;89.30;;;;;;5020605;28;20454;-95
2023/04/15 08:12:12;;;;;;;4.47;3.93;;;12.80;89.30;;;;;;5020372;28;20410;-94
2023/04/15 08:14:41;;;;;;;5.77;3.90;;;12.80;89.20;;;;;;5005438;28;20432;-95
2023/04/15 08:17:09;;;;;;;9.83;4.63;;;12.80;89.30;;;;;;5019493;28;20505;-94
2023/04/15 08:19:36;;;;;;;4.53;4.00;;;12.90;89.30;;;;;;5018999;28;20503;-94
2023/04/15 08:22:04;;;;;;;4.20;3.80;;;12.90;89.30;;;;;;5025969;28;20441;-93
2023/04/15 08:24:31;;;;;;;5.20;3.50;;;12.90;89.30;;;;;;5039254;28;20821;-94
2023/04/15 08:27:24;;;;;;;7.00;3.57;;;12.90;89.20;;;;;;5022373;28;20506;-94
2023/04/15 08:29:51;;;;;;;3.83;3.47;;;12.90;89.30;;;;;;5020172;28;20416;-94
2023/04/15 08:32:19;;;;;;;5.30;3.37;;;12.90;89.30;;;;;;5002668;28;20410;-93
2023/04/15 08:34:46;;;;;;;4.23;3.47;;;12.90;89.40;;;;;;5018675;28;20763;-94
2023/04/15 08:37:13;;;;;;;5.33;4.10;;;12.90;89.50;;;;;;5018665;28;20413;-95
2023/04/15 08:39:40;;;;;;;4.20;3.30;;;12.90;89.30;;;;;;5035289;28;20423;-94
2023/04/15 08:42:15;;;;;;;4.40;3.50;;;13.00;89.40;;;;;;5018753;28;20779;-95
2023/04/15 08:44:43;;;;;;;3.57;3.27;;;12.90;89.30;;;;;;5008381;28;20759;-93
2023/04/15 08:47:13;;;;;;;4.13;3.50;;;13.00;89.40;;;;;;4998909;28;20408;-95
2023/04/15 08:49:43;;;;;;;5.70;3.67;;;13.00;89.40;;;;;;4999083;28;20399;-95
2023/04/15 08:52:11;;;;;;;4.43;4.03;;;13.00;89.40;;;;;;4999015;28;20751;-95
2023/04/15 08:54:43;;;;;;;5.63;3.50;;;13.10;89.50;;;;;;5014846;28;20783;-94
2023/04/15 08:57:11;;;;;;;3.20;2.90;;;13.10;89.40;;;;;;4999165;28;20412;-95
2023/04/15 08:59:40;;;;;;;3.33;3.03;;;13.10;89.30;;;;;;5034133;28;20445;-95
2023/04/15 09:02:11;;;;;;;3.23;2.80;;;13.10;89.20;;;;;;5018872;28;20410;-95
2023/04/15 09:04:42;;;;;;;4.30;3.23;;;13.10;89.10;;;;;;5018494;28;20456;-95
2023/04/15 09:09:58;;;;;;;3.00;2.70;;;13.20;89.10;;;;;;5034598;28;20414;-95
2023/04/15 09:12:25;;;;;;;2.87;2.63;;;13.10;88.90;;;;;;5025392;28;20760;-95
2023/04/15 09:14:52;;;;;;;3.97;2.60;;;13.20;88.90;;;;;;5035817;28;20438;-95
2023/04/15 09:17:25;;;;;;;2.70;2.50;;;13.20;88.90;;;;;;5018615;28;20429;-94
2023/04/15 09:24:27;;;;;;;3.87;2.50;;;13.20;88.70;;;;;;4975603;28;20468;-95
2023/04/15 09:27:15;;;;;;;2.73;2.33;;;13.20;88.60;;;;;;4961354;28;20441;-95
2023/04/15 09:29:50;;;;;;;2.80;2.60;;;13.20;88.50;;;;;;4978815;28;20410;-95
2023/04/15 09:32:20;;;;;;;3.63;2.90;;;13.30;88.70;;;;;;4978715;28;20397;-95
2023/04/15 09:34:50;;;;;;;3.40;2.60;;;13.30;88.70;;;;;;4978839;28;20432;-94
2023/04/15 09:37:36;;;;;;;3.30;2.30;;;13.30;88.60;;;;;;4996937;28;20424;-95
2023/04/15 09:40:08;;;;;;;2.40;2.00;;;13.30;88.60;;;;;;4982715;28;20448;-95
2023/04/15 09:42:36;;;;;;;2.00;1.80;;;13.30;88.60;;;;;;4996900;28;20468;-82
2023/04/15 09:45:12;;;;;;;2.30;2.10;;;13.30;88.70;;;;;;4995876;28;20830;-82
2023/04/15 09:47:45;;;;;;;2.30;1.80;;;13.30;88.70;;;;;;4995912;28;20745;-81
2023/04/15 09:50:14;;;;;;;2.00;1.80;;;13.40;88.80;;;;;;4996119;28;20415;-82
2023/04/15 09:52:47;;;;;;;2.87;2.53;;;13.40;88.80;;;;;;4979288;28;20910;-81
2023/04/15 09:55:17;;;;;;;2.70;2.50;;;13.40;88.90;;;;;;4995995;28;20416;-81
2023/04/15 09:57:48;;;;;;;2.77;2.07;;;13.50;89.20;;;;;;4995523;28;20446;-82
2023/04/15 10:00:20;;;;;;;2.90;2.20;;;13.50;89.20;;;;;;5015873;28;20417;-81
2023/04/15 10:02:48;;;;;;;2.63;2.33;;;13.50;89.20;;;;;;5019358;28;20741;-82
2023/04/15 10:05:17;;;;;;;3.63;2.47;;;13.50;89.20;;;;;;5039605;28;20751;-82
2023/04/15 10:07:45;;;;;;;2.60;2.40;;;13.60;89.30;;;;;;5042305;28;20426;-81
2023/04/15 10:10:15;;;;;;;3.13;2.30;;;13.60;89.40;;;;;;5036833;28;20421;-82
2023/04/15 10:12:43;;;;;;;2.43;2.23;;;13.60;89.40;;;;;;5036660;28;20467;-82
2023/04/15 10:15:15;;;;;;;3.47;2.57;;;13.60;89.40;;;;;;5036858;28;20424;-82
2023/04/15 10:17:44;;;;;;;3.20;2.83;;;13.70;89.50;;;;;;5016372;28;20426;-83
2023/04/15 10:20:16;;;;;;;3.20;2.60;;;13.70;89.50;;;;;;5008175;28;20427;-83
2023/04/15 10:22:45;;;;;;;3.10;2.80;;;13.70;89.30;;;;;;5029051;28;20900;-82
2023/04/15 10:25:14;;;;;;;2.70;2.50;;;13.80;89.50;;;;;;5035582;28;20449;-82
2023/04/15 10:27:45;;;;;;;3.70;2.60;;;13.80;89.40;;;;;;5036487;28;20421;-82
2023/04/15 10:30:15;;;;;;;5.63;3.60;;;13.80;89.40;;;;;;5035695;28;20465;-88
2023/04/15 10:32:43;;;;;;;6.40;4.10;;;13.80;89.50;;;;;;5029906;28;20762;-87
2023/04/15 10:35:13;;;;;;;4.73;3.73;;;13.80;89.50;;;;;;5036434;28;20458;-87
2023/04/15 10:37:43;;;;;;;5.13;4.00;;;13.70;90.10;;;;;;5016790;28;20756;-93
2023/04/15 10:40:33;;;;;;;12.37;3.90;;;13.70;90.50;;;;;;5002567;28;20450;-94
2023/04/15 10:43:01;;;;;;;6.90;3.40;;;13.80;90.40;;;;;;5001039;28;20426;-92
2023/04/15 10:45:35;;;;;;;5.30;3.40;;;13.80;90.30;;;;;;5000563;28;20495;-91
2023/04/15 10:48:06;;;;;;;3.93;3.17;;;13.90;90.40;;;;;;5000367;28;20396;-95
2023/04/15 10:50:33;;;;;;;6.83;3.40;;;13.90;90.40;;;;;;5017123;28;20404;-92
2023/04/15 10:53:03;;;;;;;5.50;3.27;;;13.90;90.30;;;;;;5016884;28;20437;-91
2023/04/15 10:55:32;;;;;;;5.40;2.90;;;13.90;90.30;;;;;;5003697;28;20419;-92
2023/04/15 10:58:01;;;;;;;3.00;2.70;;;14.00;90.30;;;;;;5003766;28;20400;-91
2023/04/15 11:00:31;;;;;;;6.70;3.40;;;14.00;90.40;;;;;;5020042;28;20442;-92
2023/04/15 11:03:08;;;;;;;6.87;3.53;;;14.00;90.40;;;;;;5003875;28;20426;-92
2023/04/15 11:05:38;;;;;;;5.30;3.83;;;14.00;90.40;;;;;;5003103;28;20460;-92
2023/04/15 11:08:12;;;;;;;3.67;3.37;;;14.00;90.30;;;;;;5037163;28;20415;-91
2023/04/15 11:10:39;;;;;;;4.27;2.70;;;14.00;90.30;;;;;;5019592;28;20412;-92
2023/04/15 11:13:22;;;;;;;4.87;3.43;;;14.00;90.20;;;;;;5019234;28;20442;-91
2023/04/15 11:15:50;;;;;;;4.03;3.63;;;14.00;90.20;;;;;;5003425;28;20406;-90
2023/04/15 11:18:21;;;;;;;4.90;3.67;;;14.00;90.20;;;;;;5019279;28;20438;-90
2023/04/15 11:21:02;;;;;;;3.73;3.33;;;14.00;90.20;;;;;;5016502;28;20404;-91
2023/04/15 11:23:29;;;;;;;5.80;3.27;;;14.10;90.30;;;;;;5034510;28;20457;-91
2023/04/15 11:25:58;;;;;;;4.30;3.90;;;14.10;90.30;;;;;;5036807;28;20409;-91
2023/04/15 11:28:27;;;;;;;5.60;4.17;;;14.10;90.40;;;;;;5019453;28;20419;-91
2023/04/15 11:30:57;;;;;;;4.40;3.33;;;14.10;90.50;;;;;;5036178;28;20642;-90
2023/04/15 11:33:24;;;;;;;3.40;2.90;;;14.10;90.50;;;;;;5019481;28;20415;-91
2023/04/15 11:35:55;;;;;;;4.47;3.70;;;14.10;90.50;;;;;;5036526;28;20456;-91
2023/04/15 11:38:22;;;;;;;4.83;3.40;;;14.10;90.40;;;;;;5002918;28;20415;-92
2023/04/15 11:40:51;;;;;;;4.50;4.10;;;14.10;90.40;;;;;;5019432;28;20417;-91
2023/04/15 11:43:22;;;;;;;5.83;3.73;;;14.10;90.30;;;;;;5036622;28;20425;-92
2023/04/15 11:46:07;;;;;;;5.50;4.03;;;14.10;90.30;;;;;;5019676;28;20422;-92
2023/04/15 11:48:43;;;;;;;4.67;4.03;;;14.10;90.30;;;;;;5019241;28;20447;-92
2023/04/15 11:51:11;;;;;;;4.63;3.30;;;14.10;90.70;;;;;;5019773;28;20403;-91
2023/04/15 11:53:51;;;;;;;3.53;3.23;;;14.10;90.30;;;;;;5003131;28;20446;-92
2023/04/15 11:56:21;;;;;;;4.17;3.40;;;14.10;90.30;;;;;;5002932;28;20455;-90
2023/04/15 11:58:50;;;;;;;3.40;3.10;;;14.10;90.40;;;;;;5002347;28;20459;-92
2023/04/15 12:01:17;;;;;;;5.10;3.80;;;14.10;90.40;;;;;;5002646;28;20999;-93
2023/04/15 12:03:45;;;;;;;3.43;3.13;;;14.20;90.40;;;;;;5002658;28;20438;-93
2023/04/15 12:06:20;;;;;;;5.20;3.20;;;14.10;90.30;;;;;;5019361;28;20406;-93
2023/04/15 12:08:55;;;;;;;2.97;2.70;;;14.20;90.40;;;;;;5019349;28;20435;-92
2023/04/15 12:11:47;;;;;;;3.20;2.90;;;14.20;90.30;;;;;;5019255;28;20427;-92
2023/04/15 12:14:30;;;;;;;3.43;2.83;;;14.20;90.30;;;;;;5019096;28;20517;-93
2023/04/15 12:16:58;;;;;;;3.60;3.00;;;14.20;90.40;;;;;;5035030;28;20465;-93
2023/04/15 12:19:26;;;;;;;3.00;2.47;;;14.20;90.40;;;;;;4998938;28;20445;-92
2023/04/15 12:22:04;;;;;;;4.10;3.07;;;14.20;90.30;;;;;;5013747;28;20513;-93
2023/04/15 12:24:34;;;;;;;4.13;2.77;;;14.20;90.30;;;;;;5036203;28;20446;-93
2023/04/15 12:27:03;;;;;;;3.07;2.53;;;14.20;90.30;;;;;;5020818;28;20472;-93
2023/04/15 12:29:31;;;;;;;3.20;2.90;;;14.20;90.30;;;;;;5002735;28;20499;-92
2023/04/15 12:32:08;;;;;;;3.70;2.67;;;14.20;90.30;;;;;;5019342;28;20775;-92
2023/04/15 12:34:43;;;;;;;3.80;3.17;;;14.20;90.30;;;;;;5019302;28;20422;-94
2023/04/15 12:37:13;;;;;;;4.80;3.30;;;14.20;90.30;;;;;;5033198;28;20893;-91
2023/04/15 12:39:42;;;;;;;3.43;2.90;;;14.20;90.40;;;;;;5002720;28;20459;-93
2023/04/15 12:42:08;;;;;;;3.83;3.37;;;14.20;90.30;;;;;;5018665;28;20430;-91
2023/04/15 12:44:48;;;;;;;6.40;3.77;;;14.20;90.40;;;;;;5035927;28;20453;-89
2023/04/15 12:47:15;;;;;;;4.53;3.80;;;14.20;90.40;;;;;;5013125;28;20435;-93
2023/04/15 12:49:41;;;;;;;4.87;3.70;;;14.20;90.50;;;;;;5018283;28;20537;-93
2023/04/15 12:52:12;;;;;;;4.63;3.23;;;14.20;90.50;;;;;;5002207;28;20421;-91
2023/04/15 12:54:38;;;;;;;7.20;4.03;;;14.20;90.50;;;;;;5002270;28;20496;-93
2023/04/15 12:57:04;;;;;;;5.70;4.40;;;14.20;90.50;;;;;;5002455;28;20415;-92
2023/04/15 12:59:30;;;;;;;5.90;3.97;;;14.20;90.60;;;;;;5002296;28;20973;-92
2023/04/15 13:01:59;;;;;;;4.37;3.20;;;14.20;90.60;;;;;;5017971;28;20516;-92
2023/04/15 13:04:29;;;;;;;4.40;3.77;;;14.20;90.70;;;;;;5018107;28;20199;-93
2023/04/15 13:06:55;;;;;;;3.43;3.13;;;14.20;90.70;;;;;;5018078;28;20459;-93
2023/04/15 13:09:21;;;;;;;5.33;3.50;;;14.20;90.80;;;;;;5001796;28;20478;-93
2023/04/15 13:11:49;;;;;;;3.73;3.30;;;14.20;90.80;;;;;;5020268;28;20423;-93
2023/04/15 13:14:15;;;;;;;5.13;3.37;;;14.20;90.80;;;;;;5005685;28;20746;-95
2023/04/15 13:16:41;;;;;;;5.93;3.83;;;14.20;90.80;;;;;;5023025;28;20426;-92